Time;durP1;ratioP1;P1;durP2;ratioP2;P2;SDS_P1;SDS_P2;PMS_P1;PMS_P2;Temp;Humidity;BMP_temperature;BMP_pressure;BME280_temperature;BME280_humidity;BME280_pressure;Samples;Min_cycle;Max_cycle;Signal;HPM_P1;HPM_P2
2023/04/21 00:02:20;;;;;;;5.07;3.47;;;;;;;15.67;58.04;98352.75;5017039;28;20026;-77
2023/04/21 00:04:46;;;;;;;3.42;2.95;;;;;;;15.66;58.05;98353.75;5017131;28;20040;-77
2023/04/21 00:07:13;;;;;;;5.90;3.30;;;;;;;15.63;58.18;98347.00;5016804;28;20041;-76
2023/04/21 00:09:39;;;;;;;4.72;2.78;;;;;;;15.67;58.12;98360.63;4984479;28;20045;-77
2023/04/21 00:12:05;;;;;;;4.18;2.88;;;;;;;15.65;58.13;98347.66;4984351;28;20029;-76
2023/04/21 00:14:30;;;;;;;3.50;2.80;;;;;;;15.64;58.14;98347.81;5017006;28;20065;-77
2023/04/21 00:16:58;;;;;;;4.43;2.90;;;;;;;15.62;58.32;98353.22;5016815;28;20140;-77
2023/04/21 00:19:23;;;;;;;5.97;3.10;;;;;;;15.60;58.17;98339.41;5016147;28;20103;-77
2023/04/21 00:21:49;;;;;;;3.50;2.72;;;;;;;15.60;58.22;98335.97;5017032;28;20033;-77
2023/04/21 00:24:14;;;;;;;4.60;2.97;;;;;;;15.54;58.39;98330.38;5016807;28;20037;-77
2023/04/21 00:26:40;;;;;;;3.92;2.85;;;;;;;15.52;58.11;98331.50;4984150;28;20029;-77
2023/04/21 00:29:05;;;;;;;4.65;3.10;;;;;;;15.49;58.23;98335.25;4984074;28;20064;-77
2023/04/21 00:31:31;;;;;;;6.25;3.20;;;;;;;15.46;58.28;98338.19;5000215;28;20041;-77
2023/04/21 00:33:56;;;;;;;3.35;2.83;;;;;;;15.43;58.25;98322.72;5016584;28;20033;-77
2023/04/21 00:36:23;;;;;;;4.25;2.95;;;;;;;15.44;58.21;98324.38;5000262;28;20087;-77
2023/04/21 00:38:49;;;;;;;4.47;2.90;;;;;;;15.42;58.17;98326.38;4984384;28;20037;-77
2023/04/21 00:41:15;;;;;;;4.38;3.10;;;;;;;15.37;58.12;98315.50;4983974;28;20053;-78
2023/04/21 00:44:00;;;;;;;5.38;3.00;;;;;;;15.32;58.16;98320.38;4984071;28;20041;-77
2023/04/21 00:46:25;;;;;;;9.30;3.10;;;;;;;15.24;58.24;98318.53;5015891;28;20048;-77
2023/04/21 00:48:51;;;;;;;6.30;2.97;;;;;;;15.24;58.44;98329.06;5016642;28;20063;-77
2023/04/21 00:51:16;;;;;;;5.68;3.00;;;;;;;15.20;58.15;98322.47;5015688;28;20040;-77
2023/04/21 00:53:42;;;;;;;3.53;2.72;;;;;;;15.16;58.17;98319.34;5016235;28;20029;-77
2023/04/21 00:56:08;;;;;;;8.77;3.20;;;;;;;15.11;58.19;98310.28;4999737;28;20125;-77
2023/04/21 00:58:33;;;;;;;3.63;2.60;;;;;;;15.04;58.14;98301.34;5016125;28;20029;-77
2023/04/21 01:00:59;;;;;;;5.60;2.60;;;;;;;15.01;58.19;98297.25;4984386;28;20456;-77
2023/04/21 01:03:25;;;;;;;3.88;2.60;;;;;;;15.01;58.20;98307.75;4983140;28;20048;-77
2023/04/21 01:05:50;;;;;;;4.40;2.40;;;;;;;14.95;58.21;98300.50;4999891;28;20033;-77
2023/04/21 01:08:16;;;;;;;3.70;2.42;;;;;;;14.96;58.05;98295.09;4983372;28;20030;-77
2023/04/21 01:10:41;;;;;;;4.57;2.50;;;;;;;14.94;58.20;98301.47;4999325;28;20029;-77
2023/04/21 01:13:07;;;;;;;3.22;2.60;;;;;;;14.91;58.08;98300.00;4982803;28;20477;-77
2023/04/21 01:15:32;;;;;;;2.95;2.10;;;;;;;14.88;58.12;98299.44;5015336;28;20046;-77
2023/04/21 01:17:58;;;;;;;3.90;2.38;;;;;;;14.86;58.16;98293.53;5014376;28;20499;-77
2023/04/21 01:20:23;;;;;;;3.55;2.20;;;;;;;14.83;58.26;98297.28;5015973;28;20424;-77
2023/04/21 01:22:50;;;;;;;2.90;2.30;;;;;;;14.78;58.16;98294.31;4982705;28;20029;-77
2023/04/21 01:25:17;;;;;;;3.55;2.25;;;;;;;14.75;58.10;98286.72;4982460;28;20107;-77
2023/04/21 01:27:42;;;;;;;3.35;2.20;;;;;;;14.76;58.19;98293.66;4982904;28;20034;-77
2023/04/21 01:30:08;;;;;;;2.70;1.92;;;;;;;14.71;58.13;98290.66;4998447;28;20133;-77
2023/04/21 01:32:34;;;;;;;5.63;2.10;;;;;;;14.69;58.17;98284.72;5016291;28;20056;-77
2023/04/21 01:35:00;;;;;;;2.28;1.80;;;;;;;14.69;58.03;98288.19;5015530;28;20029;-77
2023/04/21 01:37:28;;;;;;;5.25;2.17;;;;;;;14.68;57.99;98289.16;5015476;28;20033;-77
2023/04/21 01:39:55;;;;;;;3.15;2.10;;;;;;;14.68;58.15;98285.72;4982832;28;20049;-77
2023/04/21 01:42:21;;;;;;;2.38;1.65;;;;;;;14.62;58.00;98274.81;4999064;28;20477;-77
2023/04/21 01:44:48;;;;;;;5.70;2.30;;;;;;;14.64;58.08;98280.78;4982284;28;20489;-77
2023/04/21 01:47:14;;;;;;;2.10;1.80;;;;;;;14.60;58.17;98274.16;4998379;28;20079;-77
2023/04/21 01:49:39;;;;;;;4.40;1.83;;;;;;;14.55;58.01;98271.16;4982732;28;20045;-77
2023/04/21 01:52:05;;;;;;;3.55;1.92;;;;;;;14.57;58.06;98279.69;4979097;28;20034;-77
2023/04/21 01:54:30;;;;;;;3.75;1.90;;;;;;;14.52;57.95;98271.47;4978930;28;20463;-77
2023/04/21 01:56:57;;;;;;;4.07;2.00;;;;;;;14.52;57.92;98271.47;4979761;28;20072;-77
2023/04/21 01:59:22;;;;;;;2.30;1.75;;;;;;;14.54;57.89;98277.38;4979402;28;20477;-77
2023/04/21 02:01:48;;;;;;;3.38;2.00;;;;;;;14.48;58.02;98260.44;5012711;28;20030;-77
2023/04/21 02:04:13;;;;;;;2.83;1.75;;;;;;;14.52;57.95;98265.41;4979312;28;20470;-77
2023/04/21 02:06:39;;;;;;;2.97;1.92;;;;;;;14.50;58.09;98265.53;4963078;28;20030;-77
2023/04/21 02:09:05;;;;;;;2.63;1.75;;;;;;;14.48;58.30;98281.47;4961818;28;20042;-77
2023/04/21 02:11:30;;;;;;;3.17;1.90;;;;;;;14.43;58.25;98264.50;4979039;28;20540;-77
2023/04/21 02:13:56;;;;;;;3.67;1.70;;;;;;;14.48;58.20;98263.06;4995034;28;20485;-78
2023/04/21 02:16:24;;;;;;;2.80;1.77;;;;;;;14.48;58.26;98264.84;4978375;28;20512;-77
2023/04/21 02:18:51;;;;;;;2.00;1.63;;;;;;;14.46;57.95;98272.06;4995989;28;20032;-77
2023/04/21 02:21:16;;;;;;;3.45;1.70;;;;;;;14.47;58.17;98261.41;4979216;28;20026;-77
2023/04/21 02:23:42;;;;;;;3.03;2.00;;;;;;;14.45;58.07;98260.75;4963694;28;20030;-77
2023/04/21 02:26:08;;;;;;;2.25;1.67;;;;;;;14.48;58.19;98264.84;4979511;28;20477;-77
2023/04/21 02:28:33;;;;;;;3.47;1.63;;;;;;;14.47;58.10;98273.72;4995508;28;20084;-77
2023/04/21 02:30:59;;;;;;;5.30;2.05;;;;;;;14.47;58.08;98264.03;4962789;28;20026;-77
2023/04/21 02:33:24;;;;;;;2.58;1.70;;;;;;;14.46;58.09;98256.31;4978469;28;20048;-77
2023/04/21 02:35:49;;;;;;;5.85;1.83;;;;;;;14.45;58.15;98259.91;4979156;28;20077;-77
2023/04/21 02:38:15;;;;;;;2.38;1.80;;;;;;;14.43;58.06;98267.94;4994977;28;20049;-77
2023/04/21 02:41:06;;;;;;;3.88;1.85;;;;;;;14.43;58.18;98264.50;5002886;28;20052;-77
2023/04/21 02:46:53;;;;;;;2.10;1.70;;;;;;;14.39;58.01;98265.75;4990474;28;20077;-76
2023/04/21 02:49:18;;;;;;;2.10;1.60;;;;;;;14.36;58.15;98269.53;4974277;28;20046;-77
2023/04/21 02:51:44;;;;;;;3.00;1.75;;;;;;;14.36;58.21;98273.94;4974441;28;20471;-76
2023/04/21 02:54:09;;;;;;;2.67;1.90;;;;;;;14.34;58.03;98278.53;4973981;28;20034;-76
2023/04/21 02:56:35;;;;;;;2.60;1.83;;;;;;;14.29;58.19;98271.13;4973456;28;20201;-77
2023/04/21 02:59:00;;;;;;;2.05;1.67;;;;;;;14.27;58.05;98268.63;4989714;28;20141;-76
2023/04/21 03:01:26;;;;;;;2.67;1.88;;;;;;;14.27;58.11;98276.50;4974135;28;20037;-75
2023/04/21 03:03:51;;;;;;;3.60;1.70;;;;;;;14.24;58.17;98276.00;4973908;28;20078;-77
2023/04/21 03:06:17;;;;;;;4.65;2.00;;;;;;;14.20;58.35;98266.78;4990588;28;20042;-76
2023/04/21 03:08:42;;;;;;;3.03;1.80;;;;;;;14.20;58.28;98274.66;4974154;28;20050;-76
2023/04/21 03:11:08;;;;;;;3.60;1.80;;;;;;;14.18;58.12;98277.41;4990256;28;20030;-77
2023/04/21 03:13:34;;;;;;;3.80;1.70;;;;;;;14.15;58.46;98269.03;4976381;28;20034;-76
2023/04/21 03:15:59;;;;;;;2.38;1.90;;;;;;;14.12;58.37;98275.41;4994693;28;20404;-76
2023/04/21 03:18:25;;;;;;;2.97;1.60;;;;;;;14.08;58.38;98277.50;4977571;28;20046;-76
2023/04/21 03:20:50;;;;;;;2.20;1.70;;;;;;;14.07;58.17;98272.41;4979727;28;20049;-77
2023/04/21 03:23:16;;;;;;;2.83;1.70;;;;;;;14.02;58.36;98274.66;4997621;28;20038;-76
2023/04/21 03:25:42;;;;;;;2.40;1.80;;;;;;;14.01;58.21;98275.63;4965827;28;20066;-76
2023/04/21 03:28:07;;;;;;;2.30;2.00;;;;;;;14.00;58.16;98272.19;4981986;28;20158;-77
2023/04/21 03:30:32;;;;;;;3.42;1.80;;;;;;;13.94;58.15;98263.09;4998042;28;20022;-73
2023/04/21 03:32:58;;;;;;;4.13;1.85;;;;;;;13.97;58.26;98271.69;4981248;28;20477;-74
2023/04/21 03:35:23;;;;;;;3.00;1.88;;;;;;;13.93;57.98;98271.13;4981478;28;20042;-75
2023/04/21 03:37:49;;;;;;;4.03;2.13;;;;;;;13.92;58.14;98266.88;4997765;28;20064;-75
2023/04/21 03:40:14;;;;;;;3.15;2.53;;;;;;;14.28;70.71;98278.19;4981741;28;20046;-73
2023/04/21 03:42:40;;;;;;;5.70;2.13;;;;;;;14.33;65.41;98287.38;4998056;28;20073;-72
2023/04/21 03:45:07;;;;;;;4.80;2.47;;;;;;;14.32;63.64;98291.81;4981663;28;20033;-72
2023/04/21 03:47:32;;;;;;;5.55;2.40;;;;;;;14.27;62.76;98284.41;4981706;28;20460;-74
2023/04/21 03:49:57;;;;;;;3.50;2.15;;;;;;;14.24;62.08;98294.38;4998245;28;20037;-73
2023/04/21 03:52:23;;;;;;;4.82;2.55;;;;;;;14.25;61.68;98291.59;4980713;28;20052;-74
2023/04/21 03:54:48;;;;;;;3.85;2.25;;;;;;;14.20;61.35;98286.00;4997628;28;20065;-73
2023/04/21 03:57:14;;;;;;;5.03;2.10;;;;;;;14.26;60.97;98289.78;4981733;28;20501;-74
2023/04/21 03:59:40;;;;;;;5.57;2.65;;;;;;;14.80;59.34;98281.84;4981481;28;20076;-74
2023/04/21 04:02:05;;;;;;;4.82;2.25;;;;;;;14.90;58.68;98279.13;4981349;28;20097;-74
2023/04/21 04:04:31;;;;;;;3.88;2.30;;;;;;;15.29;57.67;98274.22;4981801;28;20054;-77
2023/04/21 04:06:56;;;;;;;2.92;2.30;;;;;;;16.20;55.33;98284.97;4965188;28;20394;-76
2023/04/21 04:09:22;;;;;;;9.13;2.30;;;;;;;16.80;57.05;98278.50;4970180;28;20559;-72
2023/04/21 04:11:47;;;;;;;9.82;2.40;;;;;;;16.97;64.13;98289.84;4981199;28;20041;-74
2023/04/21 04:14:13;;;;;;;6.80;2.20;;;;;;;16.88;60.31;98294.31;4964993;28;20096;-74
2023/04/21 04:16:38;;;;;;;18.42;2.03;;;;;;;17.53;57.68;98287.16;4997747;28;20088;-75
2023/04/21 04:19:04;;;;;;;5.43;1.98;;;;;;;18.81;53.70;98283.09;4997287;28;20033;-75
2023/04/21 04:21:31;;;;;;;7.82;1.70;;;;;;;19.75;50.68;98286.97;4997266;28;20382;-76
2023/04/21 04:23:57;;;;;;;16.33;2.53;;;;;;;20.61;48.44;98282.47;4996415;28;20567;-75
2023/04/21 04:26:24;;;;;;;5.20;1.85;;;;;;;21.46;46.13;98281.59;4981280;28;20489;-75
2023/04/21 04:28:55;;;;;;;3.17;1.92;;;;;;;22.31;43.73;98281.19;4981056;28;20087;-74
2023/04/21 04:31:24;;;;;;;5.00;1.80;;;;;;;23.16;41.84;98278.66;4964823;28;20048;-76
2023/04/21 04:33:53;;;;;;;2.58;1.80;;;;;;;23.93;39.83;98275.28;4964746;28;20036;-75
2023/04/21 04:36:18;;;;;;;7.40;1.70;;;;;;;24.73;38.20;98282.69;4981120;28;20096;-81
2023/04/21 04:38:44;;;;;;;4.15;1.58;;;;;;;25.55;36.54;98289.63;4964891;28;20421;-77
2023/04/21 04:41:11;;;;;;;4.03;1.70;;;;;;;26.46;35.03;98290.41;4980531;28;20044;-79
2023/04/21 04:43:38;;;;;;;5.40;1.42;;;;;;;27.25;33.53;98286.56;4964927;28;20441;-78
2023/04/21 04:46:04;;;;;;;3.83;1.80;;;;;;;27.93;32.49;98294.88;4980952;28;20030;-78
2023/04/21 04:48:29;;;;;;;4.40;1.90;;;;;;;28.72;30.68;98293.22;4980237;28;20410;-79
2023/04/21 04:50:55;;;;;;;3.00;1.67;;;;;;;29.49;29.79;98296.97;4980674;28;20030;-81
2023/04/21 04:53:21;;;;;;;5.32;1.70;;;;;;;30.13;28.39;98302.50;4999853;28;20401;-75
2023/04/21 04:55:46;;;;;;;3.80;1.70;;;;;;;30.72;27.34;98303.53;4999912;28;20412;-77
2023/04/21 04:58:12;;;;;;;3.47;1.83;;;;;;;31.26;26.21;98299.81;5014813;28;20471;-74
2023/04/21 05:00:38;;;;;;;3.75;1.70;;;;;;;31.87;25.54;98309.22;5013942;28;20618;-74
2023/04/21 05:03:03;;;;;;;5.05;1.90;;;;;;;32.43;24.96;98311.19;5013593;28;20021;-76
2023/04/21 05:05:29;;;;;;;3.28;1.48;;;;;;;32.91;24.28;98311.72;4998386;28;20037;-77
2023/04/21 05:07:55;;;;;;;4.55;1.48;;;;;;;33.29;23.92;98314.88;4998143;28;20033;-75
2023/04/21 05:10:20;;;;;;;6.15;2.10;;;;;;;32.70;24.05;98315.53;4997753;28;20044;-76
2023/04/21 05:12:46;;;;;;;3.17;1.80;;;;;;;33.02;23.86;98315.19;4983021;28;20124;-75
2023/04/21 05:15:11;;;;;;;6.75;1.70;;;;;;;33.02;23.21;98312.50;4998223;28;20041;-75
2023/04/21 05:17:37;;;;;;;6.15;1.60;;;;;;;32.33;24.52;98306.59;4998819;28;20037;-74
2023/04/21 05:20:06;;;;;;;8.90;2.20;;;;;;;31.92;24.75;98311.94;4982316;28;20037;-75
2023/04/21 05:22:39;;;;;;;5.07;2.10;;;;;;;30.76;26.07;98310.03;4997652;28;20455;-76
2023/04/21 05:25:05;;;;;;;5.00;2.30;;;;;;;30.44;26.32;98307.38;4998597;28;20045;-75
2023/04/21 05:27:30;;;;;;;3.55;2.03;;;;;;;30.08;26.48;98299.78;4999602;28;20472;-76
2023/04/21 05:29:56;;;;;;;4.28;1.98;;;;;;;29.61;27.42;98294.97;4999033;28;20037;-74
2023/04/21 05:32:21;;;;;;;5.28;2.13;;;;;;;28.88;28.02;98295.09;5015701;28;20107;-76
2023/04/21 05:34:47;;;;;;;4.70;2.13;;;;;;;28.12;29.27;98298.97;4998720;28;20558;-77
2023/04/21 05:37:12;;;;;;;3.58;2.03;;;;;;;28.76;28.40;98302.44;5015425;28;20499;-76
2023/04/21 05:39:38;;;;;;;8.30;2.45;;;;;;;28.43;28.75;98307.56;4998806;28;20033;-76
2023/04/21 05:42:03;;;;;;;4.40;2.50;;;;;;;27.53;29.68;98299.22;4982360;28;20046;-76
2023/04/21 05:44:29;;;;;;;5.13;2.40;;;;;;;26.88;30.71;98302.88;4998331;28;20032;-75
2023/04/21 05:46:55;;;;;;;6.10;2.40;;;;;;;26.26;31.91;98303.28;4997776;28;20075;-76
2023/04/21 05:49:20;;;;;;;5.75;2.97;;;;;;;25.63;32.80;98289.31;4981768;28;20041;-78
2023/04/21 05:51:46;;;;;;;7.45;2.95;;;;;;;25.21;33.06;98303.34;4981558;28;20045;-76
2023/04/21 05:54:11;;;;;;;5.30;2.97;;;;;;;24.71;34.34;98300.78;5014711;28;20036;-75
2023/04/21 05:56:37;;;;;;;9.68;2.83;;;;;;;24.28;35.01;98291.66;4982659;28;20095;-75
2023/04/21 05:59:02;;;;;;;4.97;2.97;;;;;;;23.92;35.86;98301.09;4982214;28;20041;-74
2023/04/21 06:01:28;;;;;;;5.65;2.90;;;;;;;23.56;36.13;98297.19;5014677;28;20037;-78
2023/04/21 06:03:53;;;;;;;10.82;3.30;;;;;;;23.24;36.96;98294.41;4998657;28;20055;-74
2023/04/21 06:06:19;;;;;;;4.93;2.90;;;;;;;22.91;37.77;98291.78;4997027;28;20037;-79
2023/04/21 06:08:44;;;;;;;7.68;3.20;;;;;;;22.64;38.17;98299.00;4998406;28;20382;-76
2023/04/21 06:11:10;;;;;;;6.53;3.47;;;;;;;22.37;38.69;98294.50;4998393;28;20079;-75
2023/04/21 06:13:35;;;;;;;6.28;3.28;;;;;;;22.10;39.18;98298.94;4998577;28;20032;-76
2023/04/21 06:16:01;;;;;;;7.50;3.42;;;;;;;21.87;39.69;98296.66;4997682;28;20029;-74
2023/04/21 06:18:26;;;;;;;8.00;3.55;;;;;;;21.68;40.30;98299.03;4998504;28;20033;-74
2023/04/21 06:20:52;;;;;;;6.45;3.30;;;;;;;21.50;40.57;98293.47;5015009;28;20034;-75
2023/04/21 06:23:18;;;;;;;10.85;3.70;;;;;;;21.35;40.97;98290.94;4998579;28;20104;-74
2023/04/21 06:25:43;;;;;;;6.75;3.53;;;;;;;21.27;41.40;98293.75;4981770;28;20083;-75
2023/04/21 06:28:09;;;;;;;11.05;3.70;;;;;;;21.17;41.43;98301.25;4982222;28;20026;-75
2023/04/21 06:30:34;;;;;;;10.52;4.10;;;;;;;21.03;42.00;98305.66;4981003;28;20513;-75
2023/04/21 06:33:00;;;;;;;7.63;3.97;;;;;;;20.93;41.99;98308.66;4997581;28;20033;-75
2023/04/21 06:35:26;;;;;;;9.63;4.70;;;;;;;20.78;42.60;98301.63;4981445;28;20041;-78
2023/04/21 06:37:51;;;;;;;14.15;5.10;;;;;;;20.68;42.60;98303.78;4997309;28;20118;-79
2023/04/21 06:40:17;;;;;;;13.82;5.63;;;;;;;20.60;42.69;98303.88;4998508;28;20447;-75
2023/04/21 06:42:42;;;;;;;10.82;5.20;;;;;;;20.55;43.11;98296.50;4998161;28;20120;-76
2023/04/21 06:45:08;;;;;;;11.77;4.68;;;;;;;20.53;43.19;98298.53;4981365;28;20037;-77
2023/04/21 06:47:34;;;;;;;16.98;6.00;;;;;;;20.55;43.20;98306.31;4998230;28;20033;-77
2023/04/21 06:49:59;;;;;;;14.88;5.85;;;;;;;20.58;43.17;98304.06;4981523;28;20027;-77
2023/04/21 06:52:25;;;;;;;12.05;5.40;;;;;;;20.72;43.24;98299.72;4981756;28;20077;-81
2023/04/21 06:54:50;;;;;;;13.00;5.65;;;;;;;20.91;42.85;98303.53;4999674;28;20132;-78
2023/04/21 06:57:16;;;;;;;13.02;5.55;;;;;;;21.21;42.35;98298.00;4986136;28;20562;-76
2023/04/21 06:59:42;;;;;;;10.10;5.07;;;;;;;22.48;40.84;98294.91;5001562;28;20029;-75
2023/04/21 07:02:09;;;;;;;14.70;4.60;;;;;;;23.77;39.25;98284.56;4985822;28;20459;-76
2023/04/21 07:04:34;;;;;;;10.82;4.40;;;;;;;24.83;37.34;98287.53;4986155;28;20033;-76
2023/04/21 07:07:00;;;;;;;10.20;4.07;;;;;;;25.90;35.26;98295.13;4985167;28;20040;-76
2023/04/21 07:09:27;;;;;;;12.55;3.95;;;;;;;26.85;33.37;98293.47;4985232;28;20037;-77
2023/04/21 07:11:54;;;;;;;9.38;3.30;;;;;;;27.72;32.42;98288.28;5002509;28;20057;-78
2023/04/21 07:14:19;;;;;;;8.27;3.45;;;;;;;28.47;31.30;98289.09;4985731;28;20121;-78
2023/04/21 07:16:45;;;;;;;9.70;3.35;;;;;;;29.17;29.96;98289.56;4986013;28;20116;-76
2023/04/21 07:19:10;;;;;;;4.65;2.63;;;;;;;29.74;29.24;98280.31;5001349;28;20060;-75
2023/04/21 07:21:36;;;;;;;9.88;2.90;;;;;;;30.34;27.81;98285.72;4985628;28;20389;-78
2023/04/21 07:24:02;;;;;;;5.97;2.53;;;;;;;30.82;27.18;98287.44;5000623;28;20029;-78
2023/04/21 07:26:27;;;;;;;6.03;2.55;;;;;;;31.27;26.67;98289.88;5001562;28;20546;-76
2023/04/21 07:28:54;;;;;;;5.90;2.20;;;;;;;31.69;26.36;98289.75;5001612;28;20037;-75
2023/04/21 07:31:20;;;;;;;5.30;1.83;;;;;;;32.06;25.43;98282.53;5001764;28;20499;-77
2023/04/21 07:33:45;;;;;;;5.68;2.30;;;;;;;32.43;24.95;98278.78;4985381;28;20030;-77
2023/04/21 07:36:11;;;;;;;2.72;1.80;;;;;;;32.74;24.88;98278.78;4983366;28;20049;-76
2023/04/21 07:38:37;;;;;;;4.40;1.73;;;;;;;33.08;23.86;98283.53;5001197;28;20497;-76
2023/04/21 07:41:03;;;;;;;8.35;1.92;;;;;;;33.28;23.25;98277.28;4985590;28;20107;-76
2023/04/21 07:43:30;;;;;;;5.55;1.40;;;;;;;33.45;23.37;98277.75;5018033;28;20039;-75
2023/04/21 07:45:56;;;;;;;2.97;1.50;;;;;;;33.67;23.49;98281.97;5002350;28;20123;-76
2023/04/21 07:48:22;;;;;;;4.07;1.80;;;;;;;33.85;22.99;98275.09;4985525;28;20033;-76
2023/04/21 07:50:49;;;;;;;3.22;1.52;;;;;;;33.90;23.09;98283.19;4985826;28;20103;-75
2023/04/21 07:53:14;;;;;;;6.28;1.67;;;;;;;34.14;22.96;98272.44;5001603;28;20034;-78
2023/04/21 07:55:40;;;;;;;3.63;1.50;;;;;;;34.25;22.63;98274.03;5000841;28;20425;-75
2023/04/21 07:58:06;;;;;;;3.20;1.63;;;;;;;34.44;22.79;98278.72;5017308;28;20030;-73
2023/04/21 08:00:31;;;;;;;3.03;1.60;;;;;;;34.32;22.81;98278.31;4984679;28;20065;-75
2023/04/21 08:02:57;;;;;;;3.95;1.50;;;;;;;34.00;23.18;98268.75;5000660;28;20029;-74
2023/04/21 08:05:23;;;;;;;3.95;1.50;;;;;;;33.93;23.02;98273.69;5000128;28;20095;-74
2023/04/21 08:07:48;;;;;;;5.07;2.10;;;;;;;33.64;23.13;98275.19;4999998;28;20103;-75
2023/04/21 08:10:14;;;;;;;5.93;1.95;;;;;;;33.70;23.23;98274.13;5016368;28;20040;-75
2023/04/21 08:12:39;;;;;;;5.63;1.95;;;;;;;33.58;23.20;98281.72;4983635;28;20033;-77
2023/04/21 08:15:07;;;;;;;6.43;2.13;;;;;;;32.89;23.74;98275.22;4984065;28;20033;-77
2023/04/21 08:17:32;;;;;;;3.38;1.80;;;;;;;32.46;24.09;98272.81;5000696;28;20045;-75
2023/04/21 08:19:58;;;;;;;4.60;2.03;;;;;;;32.74;23.50;98263.38;4999599;28;20088;-78
2023/04/21 08:22:25;;;;;;;5.15;1.90;;;;;;;32.62;23.56;98271.75;4984065;28;20474;-76
2023/04/21 08:24:50;;;;;;;4.00;1.77;;;;;;;32.16;24.20;98271.75;5000567;28;20088;-76
2023/04/21 08:27:16;;;;;;;3.42;2.10;;;;;;;32.34;24.24;98265.03;4983093;28;20621;-77
2023/04/21 08:29:42;;;;;;;7.03;2.20;;;;;;;32.18;24.00;98258.00;4999947;28;20029;-77
2023/04/21 08:32:07;;;;;;;5.65;2.10;;;;;;;32.66;23.87;98263.94;5000117;28;20577;-75
2023/04/21 08:34:33;;;;;;;4.78;2.42;;;;;;;32.37;23.96;98266.34;5000116;28;20072;-76
2023/04/21 08:36:59;;;;;;;4.90;2.28;;;;;;;32.02;24.29;98262.53;4999880;28;20037;-76
2023/04/21 08:39:25;;;;;;;3.92;2.00;;;;;;;32.29;23.97;98259.59;4983643;28;20488;-77
2023/04/21 08:41:51;;;;;;;5.30;2.13;;;;;;;31.62;24.76;98261.41;4992675;28;20124;-77
2023/04/21 08:44:18;;;;;;;3.58;2.20;;;;;;;31.08;25.28;98267.94;4964641;28;20032;-76
2023/04/21 08:46:44;;;;;;;4.18;2.53;;;;;;;30.59;25.50;98259.00;4963876;28;20077;-78
2023/04/21 08:49:09;;;;;;;6.85;2.20;;;;;;;30.16;26.14;98258.13;4963058;28;20022;-76
2023/04/21 08:51:35;;;;;;;5.50;2.35;;;;;;;29.72;27.13;98252.84;4980386;28;20045;-76
2023/04/21 08:54:00;;;;;;;6.20;2.22;;;;;;;29.26;27.70;98257.72;4980143;28;20041;-75
2023/04/21 08:56:26;;;;;;;4.75;2.30;;;;;;;28.83;28.41;98249.38;4964188;28;20528;-77
2023/04/21 08:58:52;;;;;;;7.70;2.28;;;;;;;28.59;28.56;98257.63;4964219;28;20404;-75
2023/04/21 09:01:18;;;;;;;5.35;2.50;;;;;;;28.74;28.20;98250.84;4980279;28;20132;-76
2023/04/21 09:03:43;;;;;;;3.53;2.25;;;;;;;29.35;27.39;98250.81;4979985;28;20113;-77
2023/04/21 09:06:11;;;;;;;5.25;2.22;;;;;;;29.81;26.69;98247.84;4963806;28;20034;-76
2023/04/21 09:08:38;;;;;;;5.57;2.15;;;;;;;29.64;26.57;98242.56;4980628;28;20058;-75
2023/04/21 09:11:04;;;;;;;4.75;2.50;;;;;;;29.40;26.95;98234.78;4980378;28;20038;-77
2023/04/21 09:13:37;;;;;;;5.45;2.60;;;;;;;29.52;26.39;98232.72;4980011;28;20030;-77
2023/04/21 09:16:07;;;;;;;4.53;2.10;;;;;;;29.04;27.24;98242.38;4996299;28;20026;-78
2023/04/21 09:18:35;;;;;;;3.92;2.20;;;;;;;29.62;26.61;98245.50;4964574;28;20500;-78
2023/04/21 09:21:06;;;;;;;;;;;;;;;29.81;26.50;98232.53;4981120;28;20042;-79
2023/04/21 09:23:39;;;;;;;4.82;2.25;;;;;;;29.59;27.17;98229.88;4995640;28;19913;-76
2023/04/21 09:26:05;;;;;;;5.82;2.25;;;;;;;29.15;27.22;98229.88;4964199;28;20501;-76
2023/04/21 09:28:31;;;;;;;7.22;2.28;;;;;;;29.56;27.21;98225.00;4963524;28;20092;-76
2023/04/21 09:30:57;;;;;;;8.00;2.53;;;;;;;29.82;26.79;98230.66;4980124;28;20037;-78
2023/04/21 09:33:22;;;;;;;4.55;2.33;;;;;;;29.83;26.88;98235.78;4978793;28;20034;-76
2023/04/21 09:35:48;;;;;;;4.50;2.13;;;;;;;29.33;27.83;98226.88;4980279;28;20029;-76
2023/04/21 09:38:14;;;;;;;3.55;2.40;;;;;;;28.90;27.96;98228.50;4979712;28;20037;-76
2023/04/21 09:40:39;;;;;;;4.05;2.13;;;;;;;28.78;28.08;98225.94;4979839;28;20033;-80
2023/04/21 09:43:06;;;;;;;6.95;2.50;;;;;;;28.46;28.18;98231.88;4979575;28;20511;-76
2023/04/21 09:45:32;;;;;;;5.70;2.38;;;;;;;28.18;28.34;98223.94;4982814;28;20026;-76
2023/04/21 09:47:59;;;;;;;4.65;2.10;;;;;;;28.24;28.14;98222.97;4999039;28;20507;-78
2023/04/21 09:50:25;;;;;;;3.47;2.05;;;;;;;28.11;28.15;98211.50;4998898;28;20515;-75
2023/04/21 09:52:51;;;;;;;4.93;2.03;;;;;;;27.92;28.49;98210.06;4982267;28;20087;-76
2023/04/21 09:55:17;;;;;;;4.25;2.10;;;;;;;27.83;28.32;98224.94;4982691;28;20030;-76
2023/04/21 09:57:43;;;;;;;5.03;2.20;;;;;;;27.65;28.46;98210.69;4981487;28;20049;-76
2023/04/21 10:00:10;;;;;;;6.53;2.30;;;;;;;27.50;28.51;98213.91;4982289;28;20033;-75
2023/04/21 10:02:41;;;;;;;5.13;1.90;;;;;;;27.36;29.03;98217.94;4998364;28;20052;-76
2023/04/21 10:05:07;;;;;;;4.35;2.08;;;;;;;27.19;29.34;98221.31;4982870;28;20037;-76
2023/04/21 10:07:33;;;;;;;3.97;2.25;;;;;;;27.01;29.47;98213.44;4982353;28;20056;-76
2023/04/21 10:09:58;;;;;;;3.92;2.38;;;;;;;26.87;29.77;98220.94;4982171;28;20049;-77
2023/04/21 10:12:25;;;;;;;7.28;2.55;;;;;;;26.68;30.39;98220.28;4998451;28;20056;-78
2023/04/21 10:14:54;;;;;;;4.90;2.47;;;;;;;26.50;30.79;98219.31;4982023;28;20038;-79
2023/04/21 10:17:24;;;;;;;8.85;2.53;;;;;;;26.34;30.88;98212.78;4981392;28;20030;-78
2023/04/21 10:19:55;;;;;;;4.22;2.63;;;;;;;26.19;31.12;98217.78;4982460;28;20041;-76
2023/04/21 10:22:33;;;;;;;4.90;2.70;;;;;;;26.09;31.25;98214.84;4982617;28;20029;-74
2023/04/21 10:25:00;;;;;;;5.50;2.53;;;;;;;25.97;31.39;98206.81;5015033;28;20040;-76
2023/04/21 10:27:38;;;;;;;8.40;2.53;;;;;;;25.88;31.58;98214.31;4998543;28;20066;-75
2023/04/21 10:30:24;;;;;;;3.30;2.60;;;;;;;25.74;31.84;98207.53;4981142;28;20677;-75
2023/04/21 10:33:04;;;;;;;5.90;2.80;;;;;;;25.69;31.73;98207.44;4998686;28;20025;-76
2023/04/21 10:36:01;;;;;;;8.30;2.53;;;;;;;25.56;32.28;98214.59;4982067;28;20057;-75
2023/04/21 10:38:40;;;;;;;9.30;2.60;;;;;;;25.34;32.55;98222.28;5014706;28;20018;-76
2023/04/21 10:41:25;;;;;;;5.18;2.90;;;;;;;25.14;32.90;98224.34;4997608;28;20496;-79
2023/04/21 10:43:50;;;;;;;4.57;2.50;;;;;;;24.99;33.33;98230.88;5014884;28;20033;-75
2023/04/21 10:46:35;;;;;;;5.32;2.70;;;;;;;24.80;33.77;98239.94;5014559;28;20392;-75
2023/04/21 10:49:29;;;;;;;7.55;2.70;;;;;;;24.68;33.72;98234.50;4981725;28;20029;-75
2023/04/21 10:52:03;;;;;;;6.25;2.55;;;;;;;24.66;34.00;98234.72;4935431;29;20047;-75
2023/04/21 10:54:28;;;;;;;4.75;2.60;;;;;;;24.63;33.81;98224.47;4934567;29;20047;-76
2023/04/21 10:56:55;;;;;;;5.45;2.67;;;;;;;24.64;33.81;98234.13;4919958;29;20062;-74
2023/04/21 10:59:20;;;;;;;3.58;2.63;;;;;;;24.68;33.73;98234.50;4919093;29;20130;-75
2023/04/21 11:01:46;;;;;;;6.53;2.78;;;;;;;24.68;34.11;98234.50;4920114;29;20031;-75
2023/04/21 11:04:18;;;;;;;7.13;2.75;;;;;;;24.65;33.96;98230.41;4935790;29;20047;-76
2023/04/21 11:07:11;;;;;;;5.88;2.47;;;;;;;24.67;33.89;98235.53;4935923;29;20040;-74
2023/04/21 11:09:38;;;;;;;5.70;2.75;;;;;;;24.72;33.84;98225.03;4951786;29;20042;-75
2023/04/21 11:12:08;;;;;;;5.20;2.72;;;;;;;24.83;33.91;98221.63;4919042;29;20155;-75
2023/04/21 11:14:34;;;;;;;10.32;2.90;;;;;;;24.89;33.53;98223.41;4918368;29;20151;-74
2023/04/21 11:17:01;;;;;;;9.20;2.80;;;;;;;24.84;33.31;98227.75;4920066;29;20047;-75
2023/04/21 11:19:26;;;;;;;3.75;2.55;;;;;;;24.91;33.51;98223.97;4920122;29;20443;-76
2023/04/21 11:21:53;;;;;;;3.83;2.60;;;;;;;24.93;33.51;98223.75;4903580;29;20095;-78
2023/04/21 11:24:19;;;;;;;4.30;2.60;;;;;;;24.91;33.36;98217.84;4919373;29;20486;-75
2023/04/21 11:26:45;;;;;;;6.13;2.50;;;;;;;24.90;33.61;98217.00;4935572;29;20035;-76
2023/04/21 11:29:11;;;;;;;5.35;2.70;;;;;;;24.82;33.42;98214.63;4993340;28;20042;-79
2023/04/21 11:31:37;;;;;;;9.02;2.70;;;;;;;24.68;33.51;98213.94;4997367;28;20041;-77
2023/04/21 11:34:05;;;;;;;8.35;2.83;;;;;;;24.51;33.93;98224.38;4981549;28;20029;-76
2023/04/21 11:36:31;;;;;;;;;;;;;;;24.39;33.60;98223.44;4998886;28;20486;-80